Details From SBIL - Ilheus
To SBVT - Goiabeiras
Flight Number -
Tags generated
Created
Modified
Stats Distance 338 nm / 626 km
Max Altitude 26,300 ft / 8,016 m
Waypoints 8
Social Downloads 0
Likes 0
Share VATSIM

Download

Looking for another format? Having issues loading an existing format? Contact us
Advertisement - Login to hide

Notes

Basic altitude profile: - Ascent Rate: 2500ft/min - Ascent Speed: 250kts - Cruise Altitude: 9500ft - Cruise Speed: 170kts - Descent Rate: 1500ft/min - Descent Speed: 250kts Options: - Use NATs: yes - Use PACOTS: yes - Use low airways: yes - Use high airways: yes

Route

SBIL RAIRA G677 CVL UW50 EUDES G677 VTR SBVT

ID Type Via Altitude Latitude Longitude Leg Dist Tot Dist Heading (true) Name
O SBIL APT - 0 ft / 0 m -14.81596˚ -39.03320˚ - 0 nm - Ilheus
RAIRA FIX - 16,500 ft / 5,029 m -15.63000˚ -39.09917˚ 49 nm 49 nm 184° / 184° -
CARAM FIX G677 (AWY-LO) 24,500 ft / 7,468 m -17.09917˚ -39.21267˚ 88 nm 137 nm 184° / 184° -
CVL NDB G677 (AWY-LO) 24,500 ft / 7,468 m -17.65417˚ -39.24983˚ 33 nm 170 nm 184° / 184° CARAVELAS NDB
EUDES FIX UW50 (AWY-HI) 26,300 ft / 8,016 m -18.26900˚ -39.49767˚ 39 nm 210 nm 201° / 201° -
GIDOD FIX G677 (AWY-LO) 8,700 ft / 2,652 m -19.62367˚ -40.03250˚ 86 nm 297 nm 200° / 201° -
VTR VOR G677 (AWY-LO) 4,500 ft / 1,372 m -20.24967˚ -40.28300˚ 40 nm 337 nm 201° / 201° VITORIA VOR-DME
O SBVT APT - 0 ft / 0 m -20.25561˚ -40.28889˚ 0 nm 337 nm 223° / 223° Goiabeiras

Altitude Profile

Advertisement - Login to hide

Weather


0- 5 10 15 20 25 30 35+ Temperature / ° C

Clouds and Precipitation
Forecast for 2017-12-16 06:00 UTC. Updated 20 minutes ago

Ground ~20,000 ft ~40,000 ft Winds

SBIL

Details ICAO SBIL (IOS)
Name Ilheus
Region Brazil
Timezone America/Bahia (UTC-3.0)
Stats Elevation 15 ft / 5 m (AMSL)
Location -14.815964° -39.033197°
Runways 1
Magnetic Variation 23.684° W

METAR

Not found

TAF

TAF SBIL 151500Z 1518/1606 10006KT 8000 SCT020 TX28/1518Z TN23/1605Z BECMG 1602/1603 28003KT RMK PEA

Decode

Departure Runways

ID Width Length Bearing (true) Bearing (mag) Surface Threshold Offset Overrun Length
11 148 ft / 45 m 5,127 ft / 1,563 m 88.35° 112.03° Asphalt 0 ft / 0 m 190 ft / 58 m
29 148 ft / 45 m 5,127 ft / 1,563 m 268.34° 292.02° Asphalt 0 ft / 0 m 160 ft / 49 m

SBVT

Details ICAO SBVT (VIX)
Name Goiabeiras
Region Brazil
Timezone America/Sao_Paulo (UTC-2.0)
Stats Elevation 11 ft / 3 m (AMSL)
Location -20.255611° -40.288893°
Runways 1
Magnetic Variation 23.797° W

METAR

SBVT 160100Z 34006KT 9999 SCT013 BKN100 25/23 Q1014

Decode

TAF

TAF SBVT 151500Z 1518/1618 35007KT 8000 SCT020 SCT040 TN22/1607Z TX28/1615Z RMK PEA

Decode

Destination Runways

ID Width Length Bearing (true) Bearing (mag) Surface Threshold Offset Overrun Length
05 148 ft / 45 m 5,769 ft / 1,759 m 31.71° 55.51° Asphalt 0 ft / 0 m 189 ft / 58 m
23 148 ft / 45 m 5,769 ft / 1,759 m 211.71° 235.51° Asphalt 0 ft / 0 m 189 ft / 58 m